createdAt,value
2023-03-05T00:01:18.999Z,1.20
2023-03-05T00:03:46.298Z,1.16
2023-03-05T00:06:13.438Z,1.20
2023-03-05T00:08:40.294Z,1.19
2023-03-05T00:11:10.252Z,1.15
2023-03-05T00:13:37.850Z,1.16
2023-03-05T00:16:11.211Z,1.13
2023-03-05T00:18:38.717Z,1.03
2023-03-05T00:21:17.439Z,0.93
2023-03-05T00:23:44.059Z,0.90
2023-03-05T00:26:10.689Z,0.85
2023-03-05T00:28:37.316Z,0.84
2023-03-05T00:31:04.406Z,0.80
2023-03-05T00:33:31.045Z,0.77
2023-03-05T00:35:58.751Z,0.70
2023-03-05T00:38:25.786Z,0.61
2023-03-05T00:40:52.444Z,0.67
2023-03-05T00:43:19.006Z,0.64
2023-03-05T00:45:45.877Z,0.58
2023-03-05T00:48:12.543Z,0.57
2023-03-05T00:50:39.179Z,0.58
2023-03-05T00:53:06.378Z,0.54
2023-03-05T00:55:32.997Z,0.47
2023-03-05T00:57:59.602Z,0.50
2023-03-05T01:00:26.442Z,0.48
2023-03-05T01:02:53.062Z,0.47
2023-03-05T01:05:20.116Z,0.41
2023-03-05T01:07:46.870Z,0.37
2023-03-05T01:10:13.929Z,0.42
2023-03-05T01:12:40.633Z,0.39
2023-03-05T01:15:07.663Z,0.33
2023-03-05T01:17:34.721Z,0.33
2023-03-05T01:20:01.461Z,0.29
2023-03-05T01:22:28.738Z,0.31
2023-03-05T01:24:55.577Z,0.18
2023-03-05T01:27:22.166Z,0.18
2023-03-05T01:29:48.926Z,0.15
2023-03-05T01:32:16.116Z,0.14
2023-03-05T01:34:42.734Z,0.07
2023-03-05T01:37:09.733Z,0.09
2023-03-05T01:39:36.474Z,0.08
2023-03-05T01:42:04.510Z,0.08
2023-03-05T01:44:33.063Z,0.07
2023-03-05T01:47:00.099Z,0.00
2023-03-05T01:49:35.477Z,0.04
2023-03-05T01:52:17.962Z,-0.06
2023-03-05T01:54:55.003Z,-0.01
2023-03-05T01:57:53.721Z,-0.09
2023-03-05T02:00:25.808Z,-0.14
2023-03-05T02:02:52.845Z,-0.19
2023-03-05T02:05:27.294Z,-0.22
2023-03-05T02:07:59.018Z,-0.26
2023-03-05T02:10:33.858Z,-0.28
2023-03-05T02:13:06.905Z,-0.33
2023-03-05T02:15:34.440Z,-0.38
2023-03-05T02:18:01.705Z,-0.38
2023-03-05T02:20:31.601Z,-0.40
2023-03-05T02:22:58.247Z,-0.44
2023-03-05T02:25:28.060Z,-0.46
2023-03-05T02:28:02.709Z,-0.43
2023-03-05T02:30:31.411Z,-0.49
2023-03-05T02:32:58.464Z,-0.51
2023-03-05T02:35:25.644Z,-0.46
2023-03-05T02:37:52.428Z,-0.65
2023-03-05T02:40:19.301Z,-0.50
2023-03-05T02:42:46.768Z,-0.50
2023-03-05T02:45:13.903Z,-0.49
2023-03-05T02:47:40.730Z,-0.55
2023-03-05T02:50:10.293Z,-0.49
2023-03-05T02:52:37.131Z,-0.57
2023-03-05T02:55:04.270Z,-0.52
2023-03-05T02:57:31.010Z,-0.57
2023-03-05T02:59:57.735Z,-0.56
2023-03-05T03:02:24.367Z,-0.55
2023-03-05T03:04:54.743Z,-0.56
2023-03-05T03:07:21.350Z,-0.55
2023-03-05T03:09:49.629Z,-0.58
2023-03-05T03:12:16.217Z,-0.59
2023-03-05T03:14:43.760Z,-0.63
2023-03-05T03:17:13.898Z,-0.64
2023-03-05T03:19:41.456Z,-0.66
2023-03-05T03:22:10.197Z,-0.68
2023-03-05T03:24:38.771Z,-0.67
2023-03-05T03:27:05.693Z,-0.69
2023-03-05T03:29:32.572Z,-0.70
2023-03-05T03:31:59.772Z,-0.73
2023-03-05T03:34:27.083Z,-0.77
2023-03-05T03:36:54.188Z,-0.79
2023-03-05T03:39:22.078Z,-0.84
2023-03-05T03:41:51.378Z,-0.88
2023-03-05T03:44:19.705Z,-0.93
2023-03-05T03:46:47.932Z,-0.94
2023-03-05T03:49:17.349Z,-0.99
2023-03-05T03:51:43.977Z,-1.02
2023-03-05T03:54:10.771Z,-1.03
2023-03-05T03:56:37.517Z,-1.08
2023-03-05T03:59:04.299Z,-1.07
2023-03-05T04:01:31.012Z,-1.12
2023-03-05T04:03:57.638Z,-1.12
2023-03-05T04:06:24.416Z,-1.13
2023-03-05T04:08:51.121Z,-1.13
2023-03-05T04:11:19.566Z,-1.13
2023-03-05T04:13:47.785Z,-1.15
2023-03-05T04:16:15.632Z,-1.24
2023-03-05T04:18:42.735Z,-1.23
2023-03-05T04:21:09.825Z,-1.25
2023-03-05T04:23:36.513Z,-1.29
2023-03-05T04:26:03.263Z,-1.28
2023-03-05T04:28:30.323Z,-1.34
2023-03-05T04:30:57.033Z,-1.34
2023-03-05T04:33:23.820Z,-1.37
2023-03-05T04:35:51.227Z,-1.39
2023-03-05T04:38:18.051Z,-1.48
2023-03-05T04:40:45.838Z,-1.47
2023-03-05T04:43:12.775Z,-1.49
2023-03-05T04:45:41.326Z,-1.53
2023-03-05T04:48:09.138Z,-1.53
2023-03-05T04:50:35.725Z,-1.56
2023-03-05T04:53:02.970Z,-1.57
2023-03-05T04:55:30.083Z,-1.57
2023-03-05T04:57:56.866Z,-1.59
2023-03-05T05:00:23.715Z,-1.64
2023-03-05T05:02:52.320Z,-1.64
2023-03-05T05:05:24.770Z,-1.67
2023-03-05T05:07:58.135Z,-1.68
2023-03-05T05:10:25.460Z,-1.67
2023-03-05T05:12:52.270Z,-1.70
2023-03-05T05:15:19.453Z,-1.70
2023-03-05T05:17:46.742Z,-1.70
2023-03-05T05:20:15.075Z,-1.72
2023-03-05T05:22:42.402Z,-1.66
2023-03-05T05:25:10.497Z,-1.68
2023-03-05T05:27:39.123Z,-1.66
2023-03-05T05:30:07.179Z,-1.68
2023-03-05T05:32:34.273Z,-1.63
2023-03-05T05:35:00.922Z,-1.72
2023-03-05T05:37:27.917Z,-1.61
2023-03-05T05:39:54.577Z,-1.57
2023-03-05T05:42:24.262Z,-1.54
2023-03-05T05:44:51.017Z,-1.46
2023-03-05T05:47:18.365Z,-1.45
2023-03-05T05:49:45.018Z,-1.46
2023-03-05T05:52:11.813Z,-1.43
2023-03-05T05:54:39.136Z,-1.41
2023-03-05T05:57:06.349Z,-1.35
2023-03-05T05:59:33.319Z,-1.31
2023-03-05T06:02:00.265Z,-1.31
2023-03-05T06:04:26.934Z,-1.25
2023-03-05T06:06:53.665Z,-1.19
2023-03-05T06:09:20.372Z,-1.15
2023-03-05T06:11:47.298Z,-1.07
2023-03-05T06:14:14.429Z,-1.03
2023-03-05T06:16:41.529Z,-0.98
2023-03-05T06:19:11.651Z,-0.87
2023-03-05T06:21:38.513Z,-0.85
2023-03-05T06:24:05.921Z,-0.79
2023-03-05T06:26:33.300Z,-0.69
2023-03-05T06:29:00.031Z,-0.66
2023-03-05T06:31:28.076Z,-0.58
2023-03-05T06:33:57.094Z,-0.51
2023-03-05T06:36:25.528Z,-0.43
2023-03-05T06:38:53.597Z,-0.36
2023-03-05T06:41:25.213Z,-0.29
2023-03-05T06:43:52.067Z,-0.32
2023-03-05T06:46:20.112Z,-0.16
2023-03-05T06:48:47.184Z,-0.09
2023-03-05T06:51:19.788Z,0.03
2023-03-05T06:53:49.396Z,0.13
2023-03-05T06:56:16.868Z,0.18
2023-03-05T06:58:46.057Z,0.33
2023-03-05T07:01:14.501Z,0.41
2023-03-05T07:03:42.004Z,0.50
2023-03-05T07:06:12.142Z,0.62
2023-03-05T07:08:39.326Z,0.71
2023-03-05T07:11:22.515Z,0.78
2023-03-05T07:13:49.937Z,0.92
2023-03-05T07:16:19.344Z,1.01
2023-03-05T07:18:46.593Z,1.11
2023-03-05T07:21:22.807Z,1.20
2023-03-05T07:23:50.345Z,1.29
2023-03-05T07:26:17.136Z,1.36
2023-03-05T07:28:43.777Z,1.46
2023-03-05T07:31:19.392Z,1.53
2023-03-05T07:33:47.515Z,1.65
2023-03-05T07:36:14.544Z,1.76
2023-03-05T07:38:41.604Z,1.83
2023-03-05T07:41:11.335Z,1.96
2023-03-05T07:43:38.872Z,2.02
2023-03-05T07:46:11.464Z,2.09
2023-03-05T07:48:38.721Z,2.15
2023-03-05T07:51:15.184Z,2.20
2023-03-05T07:53:47.000Z,2.29
2023-03-05T07:56:14.307Z,2.36
2023-03-05T07:58:41.026Z,2.44
2023-03-05T08:01:15.473Z,2.50
2023-03-05T08:03:43.529Z,2.61
2023-03-05T08:06:12.340Z,2.67
2023-03-05T08:08:39.050Z,2.75
2023-03-05T08:11:07.920Z,2.85
2023-03-05T08:13:36.235Z,2.92
2023-03-05T08:16:15.103Z,3.00
2023-03-05T08:18:42.455Z,3.03
2023-03-05T08:21:22.995Z,3.15
2023-03-05T08:23:50.117Z,3.15
2023-03-05T08:26:20.333Z,3.28
2023-03-05T08:28:47.961Z,3.30
2023-03-05T08:31:16.561Z,3.33
2023-03-05T08:33:43.841Z,3.33
2023-03-05T08:36:11.260Z,3.38
2023-03-05T08:38:37.957Z,3.43
2023-03-05T08:41:05.129Z,3.49
2023-03-05T08:43:33.408Z,3.55
2023-03-05T08:46:01.432Z,3.57
2023-03-05T08:48:29.921Z,3.68
2023-03-05T08:50:57.144Z,3.69
2023-03-05T08:53:24.444Z,3.84
2023-03-05T08:55:58.437Z,3.95
2023-03-05T08:58:25.336Z,3.98
2023-03-05T09:00:52.256Z,4.05
2023-03-05T09:03:19.240Z,4.14
2023-03-05T09:05:46.323Z,4.18
2023-03-05T09:08:12.991Z,4.19
2023-03-05T09:10:42.836Z,4.24
2023-03-05T09:13:10.060Z,4.26
2023-03-05T09:15:37.459Z,4.31
2023-03-05T09:18:04.699Z,4.34
2023-03-05T09:20:31.528Z,4.34
2023-03-05T09:22:58.151Z,4.42
2023-03-05T09:25:24.953Z,4.43
2023-03-05T09:27:51.685Z,4.54
2023-03-05T09:30:18.536Z,4.48
2023-03-05T09:32:45.500Z,4.48
2023-03-05T09:35:12.589Z,4.56
2023-03-05T09:37:39.195Z,4.67
2023-03-05T09:40:06.436Z,4.73
2023-03-05T09:42:45.372Z,4.78
2023-03-05T09:45:27.021Z,4.82
2023-03-05T09:48:06.555Z,4.86
2023-03-05T09:50:36.461Z,4.91
2023-03-05T09:53:11.905Z,4.95
2023-03-05T09:55:42.643Z,5.04
2023-03-05T09:58:43.940Z,5.23
2023-03-05T10:01:14.550Z,5.38
2023-03-05T10:03:49.477Z,5.58
2023-03-05T10:06:23.954Z,5.77
2023-03-05T10:09:25.749Z,5.87
2023-03-05T10:12:06.377Z,5.94
2023-03-05T10:14:40.254Z,5.98
2023-03-05T10:17:27.296Z,6.13
2023-03-05T10:20:22.703Z,6.31
2023-03-05T10:23:01.546Z,6.41
2023-03-05T10:26:19.091Z,6.56
2023-03-05T10:28:57.654Z,6.77
2023-03-05T10:32:03.415Z,6.88
2023-03-05T10:34:43.149Z,6.96
2023-03-05T10:37:17.257Z,7.17
2023-03-05T10:40:16.871Z,7.32
2023-03-05T10:43:07.650Z,7.53
2023-03-05T10:45:43.165Z,7.73
2023-03-05T10:48:15.729Z,7.81
2023-03-05T10:50:50.453Z,7.82
2023-03-05T10:53:28.153Z,7.81
2023-03-05T10:55:56.816Z,7.82
2023-03-05T10:58:25.151Z,7.74
2023-03-05T11:01:28.979Z,7.73
2023-03-05T11:04:01.214Z,7.76
2023-03-05T11:06:47.756Z,7.75
2023-03-05T11:09:32.431Z,7.70
2023-03-05T11:12:19.015Z,7.88
2023-03-05T11:15:07.521Z,8.05
2023-03-05T11:17:43.431Z,8.16
2023-03-05T11:20:29.207Z,8.32
2023-03-05T11:23:03.247Z,8.38
2023-03-05T11:25:31.294Z,8.45
2023-03-05T11:28:00.614Z,8.51
2023-03-05T11:30:35.498Z,8.70
2023-03-05T11:33:31.968Z,8.81
2023-03-05T11:36:24.612Z,9.02
2023-03-05T11:39:00.359Z,9.21
2023-03-05T11:41:32.560Z,9.35
2023-03-05T11:44:03.932Z,9.28
2023-03-05T11:46:42.710Z,9.10
2023-03-05T11:49:14.790Z,9.07
2023-03-05T11:51:46.305Z,9.10
2023-03-05T11:54:21.293Z,9.04
2023-03-05T11:56:48.189Z,9.01
2023-03-05T11:59:20.013Z,9.04
2023-03-05T12:01:50.577Z,9.07
2023-03-05T12:04:21.194Z,9.10
2023-03-05T12:06:49.703Z,9.11
2023-03-05T12:09:35.416Z,9.05
2023-03-05T12:12:21.015Z,9.06
2023-03-05T12:15:09.606Z,8.98
2023-03-05T12:17:55.266Z,8.86
2023-03-05T12:20:35.167Z,8.76
2023-03-05T12:23:02.143Z,8.64
2023-03-05T12:25:31.877Z,8.62
2023-03-05T12:27:59.184Z,8.60
2023-03-05T12:30:49.674Z,8.63
2023-03-05T12:33:37.565Z,8.74
2023-03-05T12:36:22.704Z,8.85
2023-03-05T12:38:53.555Z,8.80
2023-03-05T12:41:22.970Z,8.82
2023-03-05T12:44:18.176Z,8.80
2023-03-05T12:47:25.589Z,8.86
2023-03-05T12:49:52.444Z,8.75
2023-03-05T12:52:24.885Z,8.70
2023-03-05T12:55:03.805Z,8.69
2023-03-05T12:57:31.437Z,8.79
2023-03-05T13:00:21.730Z,8.88
2023-03-05T13:02:56.191Z,8.91
2023-03-05T13:05:36.099Z,9.00
2023-03-05T13:08:22.267Z,9.09
2023-03-05T13:10:54.398Z,9.12
2023-03-05T13:13:21.725Z,9.20
2023-03-05T13:15:50.582Z,9.27
2023-03-05T13:18:23.573Z,9.21
2023-03-05T13:21:04.740Z,9.18
2023-03-05T13:23:33.330Z,9.07
2023-03-05T13:26:03.702Z,8.98
2023-03-05T13:28:32.651Z,8.85
2023-03-05T13:31:12.360Z,8.82
2023-03-05T13:33:39.476Z,8.82
2023-03-05T13:36:07.274Z,8.70
2023-03-05T13:38:43.989Z,8.55
2023-03-05T13:41:43.043Z,8.46
2023-03-05T13:44:21.961Z,8.43
2023-03-05T13:46:48.925Z,8.44
2023-03-05T13:49:25.700Z,8.50
2023-03-05T13:52:00.131Z,8.54
2023-03-05T13:54:28.432Z,8.57
2023-03-05T13:56:58.864Z,8.59
2023-03-05T13:59:31.969Z,8.55
2023-03-05T14:02:00.798Z,8.52
2023-03-05T14:04:36.831Z,8.42
2023-03-05T14:07:18.778Z,8.39
2023-03-05T14:09:52.531Z,8.33
2023-03-05T14:12:30.499Z,8.30
2023-03-05T14:14:59.412Z,8.23
2023-03-05T14:17:41.885Z,8.21
2023-03-05T14:20:27.608Z,8.15
2023-03-05T14:22:59.419Z,8.14
2023-03-05T14:25:36.706Z,8.03
2023-03-05T14:28:17.804Z,7.98
2023-03-05T14:30:49.331Z,7.95
2023-03-05T14:33:32.480Z,7.99
2023-03-05T14:36:01.496Z,7.89
2023-03-05T14:38:32.031Z,7.93
2023-03-05T14:40:58.638Z,7.87
2023-03-05T14:43:25.659Z,7.85
2023-03-05T14:45:52.423Z,7.72
2023-03-05T14:48:19.273Z,7.73
2023-03-05T14:50:51.688Z,7.68
2023-03-05T14:53:23.014Z,7.66
2023-03-05T14:55:53.918Z,7.59
2023-03-05T14:58:22.147Z,7.53
2023-03-05T15:00:51.117Z,7.48
2023-03-05T15:03:19.410Z,7.44
2023-03-05T15:05:49.555Z,7.44
2023-03-05T15:08:29.361Z,7.47
2023-03-05T15:10:56.502Z,7.45
2023-03-05T15:13:23.455Z,7.46
2023-03-05T15:15:51.588Z,7.44
2023-03-05T15:18:20.685Z,7.42
2023-03-05T15:20:54.915Z,7.42
2023-03-05T15:23:21.515Z,7.41
2023-03-05T15:25:48.365Z,7.35
2023-03-05T15:28:15.846Z,7.44
2023-03-05T15:30:45.792Z,7.42
2023-03-05T15:33:15.554Z,7.42
2023-03-05T15:35:43.115Z,7.42
2023-03-05T15:38:09.718Z,7.37
2023-03-05T15:40:36.651Z,7.27
2023-03-05T15:43:03.729Z,7.14
2023-03-05T15:45:33.801Z,7.21
2023-03-05T15:48:00.641Z,7.09
2023-03-05T15:50:27.466Z,7.15
2023-03-05T15:52:54.128Z,7.13
2023-03-05T15:55:24.062Z,7.08
2023-03-05T15:57:52.328Z,7.08
2023-03-05T16:00:25.793Z,7.10
2023-03-05T16:02:53.970Z,7.07
2023-03-05T16:05:20.704Z,7.10
2023-03-05T16:07:50.334Z,7.09
2023-03-05T16:10:22.984Z,7.05
2023-03-05T16:12:57.756Z,7.10
2023-03-05T16:15:25.416Z,7.09
2023-03-05T16:17:56.231Z,7.05
2023-03-05T16:20:23.771Z,7.05
2023-03-05T16:22:50.828Z,7.01
2023-03-05T16:25:18.068Z,7.02
2023-03-05T16:27:45.128Z,7.00
2023-03-05T16:30:15.126Z,6.94
2023-03-05T16:32:42.319Z,6.91
2023-03-05T16:35:11.945Z,6.91
2023-03-05T16:37:39.842Z,6.88
2023-03-05T16:40:08.934Z,6.84
2023-03-05T16:42:35.538Z,6.80
2023-03-05T16:45:02.991Z,6.83
2023-03-05T16:47:29.876Z,6.77
2023-03-05T16:49:56.615Z,6.77
2023-03-05T16:52:23.574Z,6.61
2023-03-05T16:54:50.346Z,6.41
2023-03-05T16:57:17.053Z,6.24
2023-03-05T16:59:43.959Z,6.06
2023-03-05T17:02:13.277Z,5.85
2023-03-05T17:04:40.177Z,5.76
2023-03-05T17:07:07.170Z,5.71
2023-03-05T17:09:34.069Z,5.62
2023-03-05T17:12:00.992Z,5.53
2023-03-05T17:14:28.534Z,5.42
2023-03-05T17:16:55.379Z,5.35
2023-03-05T17:19:22.116Z,5.39
2023-03-05T17:21:51.186Z,5.41
2023-03-05T17:24:20.173Z,5.34
2023-03-05T17:26:48.436Z,5.26
2023-03-05T17:29:15.104Z,5.17
2023-03-05T17:31:41.981Z,5.27
2023-03-05T17:34:08.673Z,5.26
2023-03-05T17:36:35.336Z,5.30
2023-03-05T17:39:02.002Z,5.32
2023-03-05T17:41:28.672Z,5.36
2023-03-05T17:43:55.300Z,5.29
2023-03-05T17:46:22.151Z,5.33
2023-03-05T17:48:48.808Z,5.34
2023-03-05T17:51:16.785Z,5.32
2023-03-05T17:53:44.347Z,5.30
2023-03-05T17:56:13.455Z,5.31
2023-03-05T17:58:40.693Z,5.33
2023-03-05T18:01:08.727Z,5.35
2023-03-05T18:03:36.547Z,5.30
2023-03-05T18:06:04.954Z,5.28
2023-03-05T18:08:32.067Z,5.24
2023-03-05T18:10:58.755Z,5.25
2023-03-05T18:13:26.098Z,5.21
2023-03-05T18:15:52.843Z,5.25
2023-03-05T18:18:19.676Z,5.24
2023-03-05T18:20:47.700Z,5.23
2023-03-05T18:23:14.595Z,5.18
2023-03-05T18:25:41.444Z,5.13
2023-03-05T18:28:12.953Z,5.17
2023-03-05T18:30:40.944Z,5.18
2023-03-05T18:33:09.124Z,5.19
2023-03-05T18:35:36.973Z,5.18
2023-03-05T18:38:03.843Z,5.17
2023-03-05T18:40:32.681Z,5.14
2023-03-05T18:43:01.072Z,5.07
2023-03-05T18:45:29.138Z,5.04
2023-03-05T18:47:56.742Z,5.02
2023-03-05T18:50:28.467Z,4.97
2023-03-05T18:52:55.798Z,5.01
2023-03-05T18:55:25.527Z,4.98
2023-03-05T18:57:52.869Z,4.94
2023-03-05T19:00:22.841Z,4.91
2023-03-05T19:02:49.754Z,4.82
2023-03-05T19:05:16.937Z,4.74
2023-03-05T19:07:43.650Z,4.87
2023-03-05T19:10:12.376Z,4.88
2023-03-05T19:13:13.722Z,4.89
2023-03-05T19:15:40.618Z,4.94
2023-03-05T19:18:07.644Z,5.00
2023-03-05T19:20:34.412Z,4.95
2023-03-05T19:23:01.079Z,4.97
2023-03-05T19:25:27.678Z,4.97
2023-03-05T19:27:55.112Z,4.88
2023-03-05T19:30:21.934Z,4.90
2023-03-05T19:32:49.724Z,4.87
2023-03-05T19:35:17.567Z,4.85
2023-03-05T19:37:45.968Z,4.81
2023-03-05T19:40:14.318Z,4.80
2023-03-05T19:42:41.198Z,4.76
2023-03-05T19:45:08.602Z,4.74
2023-03-05T19:47:35.428Z,4.72
2023-03-05T19:50:02.790Z,4.73
2023-03-05T19:52:29.412Z,4.76
2023-03-05T19:54:56.412Z,4.74
2023-03-05T19:57:23.122Z,4.69
2023-03-05T19:59:53.863Z,4.68
2023-03-05T20:02:22.013Z,4.63
2023-03-05T20:04:49.782Z,4.60
2023-03-05T20:07:16.623Z,4.61
2023-03-05T20:09:43.425Z,4.65
2023-03-05T20:12:10.549Z,4.60
2023-03-05T20:14:37.286Z,4.68
2023-03-05T20:17:04.128Z,4.63
2023-03-05T20:19:30.828Z,4.64
2023-03-05T20:21:57.540Z,4.63
2023-03-05T20:24:24.413Z,4.59
2023-03-05T20:26:51.132Z,4.56
2023-03-05T20:29:18.831Z,4.56
2023-03-05T20:31:46.465Z,4.51
2023-03-05T20:34:15.939Z,4.48
2023-03-05T20:36:43.586Z,4.43
2023-03-05T20:39:10.548Z,4.50
2023-03-05T20:41:38.996Z,4.50
2023-03-05T20:44:07.364Z,4.51
2023-03-05T20:46:36.848Z,4.51
2023-03-05T20:49:04.693Z,4.50
2023-03-05T20:51:35.213Z,4.49
2023-03-05T20:54:11.315Z,4.49
2023-03-05T20:56:38.036Z,4.47
2023-03-05T20:59:08.641Z,4.41
2023-03-05T21:01:37.725Z,4.41
2023-03-05T21:04:05.052Z,4.39
2023-03-05T21:06:32.589Z,4.40
2023-03-05T21:08:59.891Z,4.40
2023-03-05T21:11:27.610Z,4.34
2023-03-05T21:13:54.306Z,4.33
2023-03-05T21:16:26.311Z,4.34
2023-03-05T21:18:53.650Z,4.36
2023-03-05T21:21:20.445Z,4.38
2023-03-05T21:23:47.434Z,4.37
2023-03-05T21:26:14.546Z,4.27
2023-03-05T21:28:41.858Z,4.33
2023-03-05T21:31:14.266Z,4.30
2023-03-05T21:33:42.112Z,4.30
2023-03-05T21:36:09.176Z,4.26
2023-03-05T21:38:36.584Z,4.26
2023-03-05T21:41:05.218Z,4.25
2023-03-05T21:43:32.683Z,4.28
2023-03-05T21:46:01.572Z,4.25
2023-03-05T21:48:28.320Z,4.23
2023-03-05T21:50:55.462Z,4.19
2023-03-05T21:53:22.500Z,4.20
2023-03-05T21:56:24.164Z,4.24
2023-03-05T21:58:51.947Z,4.22
2023-03-05T22:01:21.058Z,4.23
2023-03-05T22:03:49.001Z,4.26
2023-03-05T22:06:18.242Z,4.27
2023-03-05T22:08:45.007Z,4.26
2023-03-05T22:11:14.342Z,4.22
2023-03-05T22:13:41.727Z,4.20
2023-03-05T22:16:09.693Z,4.18
2023-03-05T22:18:36.838Z,4.21
2023-03-05T22:21:03.960Z,4.20
2023-03-05T22:23:34.101Z,4.23
2023-03-05T22:26:06.766Z,4.23
2023-03-05T22:28:34.804Z,4.23
2023-03-05T22:31:01.436Z,4.19
2023-03-05T22:33:28.739Z,4.21
2023-03-05T22:35:55.582Z,4.20
2023-03-05T22:38:22.763Z,4.18
2023-03-05T22:40:50.129Z,4.17
2023-03-05T22:43:18.248Z,4.17
2023-03-05T22:45:45.056Z,4.15
2023-03-05T22:48:11.962Z,4.11
2023-03-05T22:50:40.026Z,4.10
2023-03-05T22:53:06.737Z,4.06
2023-03-05T22:55:33.433Z,4.04
2023-03-05T22:58:00.093Z,4.08
2023-03-05T23:00:26.828Z,4.05
2023-03-05T23:02:54.049Z,4.01
2023-03-05T23:05:21.165Z,4.05
2023-03-05T23:07:48.021Z,4.04
2023-03-05T23:10:19.490Z,4.00
2023-03-05T23:12:49.471Z,3.96
2023-03-05T23:15:19.455Z,3.95
2023-03-05T23:17:46.265Z,3.94
2023-03-05T23:20:17.057Z,3.91
2023-03-05T23:22:45.337Z,3.87
2023-03-05T23:25:13.612Z,3.88
2023-03-05T23:27:40.846Z,3.86
2023-03-05T23:30:19.954Z,3.84
2023-03-05T23:32:57.253Z,3.86
2023-03-05T23:35:27.107Z,3.83
2023-03-05T23:37:55.567Z,3.79
2023-03-05T23:40:24.793Z,3.82
2023-03-05T23:42:52.595Z,3.78
2023-03-05T23:45:20.419Z,3.69
2023-03-05T23:47:48.361Z,3.70
2023-03-05T23:50:25.605Z,3.73
2023-03-05T23:52:54.336Z,3.68
2023-03-05T23:55:27.040Z,3.72
2023-03-05T23:57:54.166Z,3.72
